createdAt,value
2018-08-06T00:00:38.776Z,0.90
2018-08-06T00:03:06.781Z,1.03
2018-08-06T00:05:34.706Z,0.90
2018-08-06T00:08:02.871Z,1.10
2018-08-06T00:10:30.899Z,0.87
2018-08-06T00:12:58.847Z,1.00
2018-08-06T00:15:26.840Z,0.90
2018-08-06T00:17:54.763Z,0.80
2018-08-06T00:20:22.744Z,0.80
2018-08-06T00:22:50.975Z,0.97
2018-08-06T00:25:19.127Z,0.80
2018-08-06T00:27:47.127Z,1.17
2018-08-06T00:30:16.410Z,0.80
2018-08-06T00:32:45.107Z,1.00
2018-08-06T00:35:13.375Z,0.80
2018-08-06T00:37:41.281Z,0.93
2018-08-06T00:40:09.935Z,0.73
2018-08-06T00:42:38.100Z,0.80
2018-08-06T00:45:07.080Z,0.83
2018-08-06T00:47:35.040Z,0.90
2018-08-06T00:50:03.011Z,0.93
2018-08-06T00:52:31.390Z,1.23
2018-08-06T00:54:59.273Z,1.73
2018-08-06T00:57:27.151Z,1.00
2018-08-06T00:59:55.065Z,1.10
2018-08-06T01:02:22.956Z,0.90
2018-08-06T01:04:50.843Z,1.70
2018-08-06T01:07:18.727Z,0.90
2018-08-06T01:09:46.617Z,0.90
2018-08-06T01:12:14.526Z,1.20
2018-08-06T01:14:42.404Z,0.90
2018-08-06T01:17:10.331Z,1.03
2018-08-06T01:19:38.233Z,1.33
2018-08-06T01:22:06.347Z,1.30
2018-08-06T01:24:34.358Z,0.90
2018-08-06T01:27:02.231Z,0.70
2018-08-06T01:29:30.123Z,0.90
2018-08-06T01:31:58.043Z,1.00
2018-08-06T01:34:25.927Z,0.90
2018-08-06T01:36:54.888Z,1.00
2018-08-06T01:39:22.770Z,1.07
2018-08-06T01:41:50.647Z,1.03
2018-08-06T01:44:18.543Z,0.90
2018-08-06T01:46:46.457Z,0.80
2018-08-06T01:49:14.352Z,1.17
2018-08-06T01:51:42.919Z,0.93
2018-08-06T01:54:10.819Z,1.10
2018-08-06T01:56:38.703Z,0.90
2018-08-06T01:59:06.607Z,0.93
2018-08-06T02:01:34.607Z,1.10
2018-08-06T02:04:03.571Z,0.90
2018-08-06T02:06:31.456Z,0.80
2018-08-06T02:08:59.335Z,0.73
2018-08-06T02:11:27.254Z,0.90
2018-08-06T02:13:55.131Z,0.80
2018-08-06T02:16:23.016Z,0.80
2018-08-06T02:18:50.911Z,1.03
2018-08-06T02:21:18.779Z,0.80
2018-08-06T02:23:47.371Z,1.60
2018-08-06T02:26:15.299Z,0.90
2018-08-06T02:28:43.365Z,1.20
2018-08-06T02:31:11.324Z,0.87
2018-08-06T02:33:39.204Z,1.43
2018-08-06T02:36:07.197Z,0.90
2018-08-06T02:38:35.090Z,1.30
2018-08-06T02:41:03.026Z,1.00
2018-08-06T02:43:30.911Z,1.00
2018-08-06T02:45:58.836Z,1.13
2018-08-06T02:48:26.712Z,0.90
2018-08-06T02:50:54.665Z,1.40
2018-08-06T02:53:22.563Z,1.03
2018-08-06T02:55:50.455Z,0.90
2018-08-06T02:58:18.333Z,1.00
2018-08-06T03:00:46.232Z,1.00
2018-08-06T03:03:14.119Z,1.10
2018-08-06T03:05:42.083Z,0.97
2018-08-06T03:08:09.981Z,1.20
2018-08-06T03:10:37.908Z,1.20
2018-08-06T03:13:05.888Z,1.00
2018-08-06T03:15:33.772Z,1.10
2018-08-06T03:18:01.721Z,1.10
2018-08-06T03:20:29.607Z,1.30
2018-08-06T03:22:57.491Z,0.97
2018-08-06T03:25:25.427Z,1.20
2018-08-06T03:27:53.320Z,1.17
2018-08-06T03:30:21.504Z,1.17
2018-08-06T03:32:49.386Z,1.30
2018-08-06T03:35:17.277Z,1.33
2018-08-06T03:37:45.176Z,1.20
2018-08-06T03:40:13.132Z,0.93
2018-08-06T03:42:41.135Z,1.00
2018-08-06T03:45:10.107Z,1.17
2018-08-06T03:47:38.244Z,1.07
2018-08-06T03:50:06.584Z,1.50
2018-08-06T03:52:34.500Z,1.03
2018-08-06T03:55:02.480Z,1.10
2018-08-06T03:57:31.878Z,1.00
2018-08-06T03:59:59.765Z,3.67
2018-08-06T04:02:27.766Z,3.07
2018-08-06T04:04:55.668Z,2.90
2018-08-06T04:07:23.550Z,3.90
2018-08-06T04:09:51.543Z,3.70
2018-08-06T04:12:19.419Z,1.30
2018-08-06T04:14:47.384Z,1.90
2018-08-06T04:17:15.256Z,1.30
2018-08-06T04:19:43.262Z,1.17
2018-08-06T04:22:12.372Z,1.10
2018-08-06T04:24:40.287Z,1.33
2018-08-06T04:27:08.264Z,1.03
2018-08-06T04:29:36.688Z,1.30
2018-08-06T04:32:04.600Z,1.33
2018-08-06T04:34:32.555Z,1.33
2018-08-06T04:37:00.475Z,1.13
2018-08-06T04:39:28.324Z,1.20
2018-08-06T04:41:56.252Z,1.30
2018-08-06T04:44:24.132Z,7.33
2018-08-06T04:46:52.032Z,3.70
2018-08-06T04:49:19.912Z,2.73
2018-08-06T04:51:47.978Z,1.50
2018-08-06T04:54:15.888Z,1.43
2018-08-06T04:56:43.851Z,1.70
2018-08-06T04:59:11.723Z,1.33
2018-08-06T05:01:39.855Z,1.60
2018-08-06T05:04:07.746Z,1.80
2018-08-06T05:06:35.895Z,1.30
2018-08-06T05:09:06.338Z,1.60
2018-08-06T05:11:34.238Z,1.50
2018-08-06T05:14:02.385Z,1.63
2018-08-06T05:16:30.259Z,1.50
2018-08-06T05:18:58.188Z,1.30
2018-08-06T05:21:26.086Z,2.30
2018-08-06T05:23:56.539Z,1.63
2018-08-06T05:26:25.148Z,1.70
2018-08-06T05:28:53.476Z,1.80
2018-08-06T05:31:23.210Z,2.40
2018-08-06T05:33:51.537Z,1.40
2018-08-06T05:36:20.124Z,1.40
2018-08-06T05:38:48.024Z,1.37
2018-08-06T05:41:16.072Z,1.40
2018-08-06T05:43:45.008Z,4.60
2018-08-06T05:46:14.021Z,2.30
2018-08-06T05:48:41.907Z,1.47
2018-08-06T05:51:10.402Z,1.60
2018-08-06T05:53:38.352Z,1.30
2018-08-06T05:56:06.755Z,1.30
2018-08-06T05:58:34.654Z,1.00
2018-08-06T06:01:02.539Z,1.30
2018-08-06T06:03:30.512Z,1.47
2018-08-06T06:05:58.412Z,1.63
2018-08-06T06:08:26.288Z,1.17
2018-08-06T06:10:54.159Z,1.10
2018-08-06T06:13:22.083Z,1.10
2018-08-06T06:15:49.967Z,3.03
2018-08-06T06:18:17.909Z,1.80
2018-08-06T06:20:45.868Z,1.10
2018-08-06T06:23:13.796Z,1.10
2018-08-06T06:25:41.768Z,1.20
2018-08-06T06:28:09.888Z,1.37
2018-08-06T06:30:37.768Z,1.30
2018-08-06T06:33:05.653Z,1.40
2018-08-06T06:35:33.544Z,1.20
2018-08-06T06:38:01.428Z,1.10
2018-08-06T06:40:29.316Z,1.47
2018-08-06T06:42:57.204Z,1.10
2018-08-06T06:45:25.099Z,1.43
2018-08-06T06:47:53.033Z,1.03
2018-08-06T06:50:20.914Z,1.10
2018-08-06T06:52:48.826Z,1.10
2018-08-06T06:55:16.825Z,1.27
2018-08-06T06:57:44.795Z,1.20
2018-08-06T07:00:12.808Z,1.10
2018-08-06T07:02:41.499Z,0.93
2018-08-06T07:05:09.412Z,1.00
2018-08-06T07:07:37.643Z,1.03
2018-08-06T07:10:06.496Z,1.30
2018-08-06T07:12:34.460Z,1.10
2018-08-06T07:15:02.460Z,1.23
2018-08-06T07:17:30.347Z,1.17
2018-08-06T07:19:58.233Z,1.37
2018-08-06T07:22:26.208Z,1.30
2018-08-06T07:24:54.469Z,1.30
2018-08-06T07:27:22.352Z,1.33
2018-08-06T07:29:50.240Z,1.37
2018-08-06T07:32:18.147Z,1.30
2018-08-06T07:34:46.037Z,1.40
2018-08-06T07:37:13.935Z,0.90
2018-08-06T07:39:41.900Z,1.50
2018-08-06T07:42:09.791Z,1.23
2018-08-06T07:44:37.787Z,1.37
2018-08-06T07:47:05.793Z,1.37
2018-08-06T07:49:33.714Z,1.47
2018-08-06T07:52:01.668Z,1.20
2018-08-06T07:54:29.557Z,1.47
2018-08-06T07:56:57.443Z,1.60
2018-08-06T07:59:25.311Z,1.40
2018-08-06T08:01:53.195Z,1.30
2018-08-06T08:04:21.414Z,1.40
2018-08-06T08:06:49.487Z,1.60
2018-08-06T08:09:17.365Z,1.63
2018-08-06T08:11:45.256Z,1.77
2018-08-06T08:14:13.147Z,1.37
2018-08-06T08:16:41.134Z,1.50
2018-08-06T08:19:09.007Z,1.60
2018-08-06T08:21:36.919Z,1.60
2018-08-06T08:24:04.813Z,1.47
2018-08-06T08:26:32.701Z,1.50
2018-08-06T08:29:00.592Z,1.43
2018-08-06T08:31:28.484Z,1.20
2018-08-06T08:33:56.914Z,1.50
2018-08-06T08:36:24.763Z,1.40
2018-08-06T08:38:52.636Z,1.70
2018-08-06T08:41:20.591Z,1.40
2018-08-06T08:43:48.457Z,1.20
2018-08-06T08:46:16.343Z,1.47
2018-08-06T08:48:44.212Z,1.63
2018-08-06T08:51:12.108Z,1.30
2018-08-06T08:53:40.019Z,1.50
2018-08-06T08:56:07.904Z,1.90
2018-08-06T08:58:36.876Z,1.20
2018-08-06T09:01:04.703Z,1.30
2018-08-06T09:03:32.835Z,1.23
2018-08-06T09:06:00.715Z,1.53
2018-08-06T09:08:28.928Z,1.37
2018-08-06T09:10:56.847Z,1.60
2018-08-06T09:13:24.727Z,1.27
2018-08-06T09:15:52.615Z,1.60
2018-08-06T09:18:20.517Z,1.70
2018-08-06T09:20:48.416Z,2.10
2018-08-06T09:23:16.320Z,1.70
2018-08-06T09:25:44.458Z,1.33
2018-08-06T09:28:12.347Z,1.33
2018-08-06T09:30:40.221Z,1.70
2018-08-06T09:33:08.573Z,1.63
2018-08-06T09:35:36.445Z,1.50
2018-08-06T09:38:04.728Z,1.50
2018-08-06T09:40:32.674Z,1.67
2018-08-06T09:43:00.500Z,1.40
2018-08-06T09:45:28.422Z,1.20
2018-08-06T09:47:56.323Z,1.73
2018-08-06T09:50:24.468Z,1.57
2018-08-06T09:52:53.033Z,1.60
2018-08-06T09:55:22.600Z,1.57
2018-08-06T09:57:50.734Z,1.90
2018-08-06T10:00:24.581Z,1.57
2018-08-06T10:02:53.167Z,1.70
2018-08-06T10:05:22.120Z,1.60
2018-08-06T10:07:50.067Z,1.50
2018-08-06T10:10:17.952Z,1.70
2018-08-06T10:12:46.245Z,1.80
2018-08-06T10:15:14.640Z,1.67
2018-08-06T10:17:43.629Z,1.90
2018-08-06T10:20:13.885Z,1.40
2018-08-06T10:22:42.041Z,5.37
2018-08-06T10:25:11.412Z,9.13
2018-08-06T10:27:40.329Z,2.03
2018-08-06T10:30:10.681Z,1.63
2018-08-06T10:32:38.816Z,2.00
2018-08-06T10:35:07.954Z,1.90
2018-08-06T10:37:36.924Z,1.90
2018-08-06T10:40:07.596Z,1.80
2018-08-06T10:42:35.775Z,1.70
2018-08-06T10:45:05.486Z,1.67
2018-08-06T10:47:33.754Z,1.80
2018-08-06T10:50:01.938Z,1.67
2018-08-06T10:52:30.060Z,1.87
2018-08-06T10:54:58.201Z,1.73
2018-08-06T10:57:26.334Z,1.67
2018-08-06T10:59:54.637Z,1.73
2018-08-06T11:02:22.761Z,1.73
2018-08-06T11:04:51.235Z,1.73
2018-08-06T11:07:19.467Z,2.00
2018-08-06T11:09:47.581Z,2.47
2018-08-06T11:12:15.712Z,1.30
2018-08-06T11:14:43.841Z,1.80
2018-08-06T11:17:12.029Z,1.70
2018-08-06T11:19:40.143Z,1.80
2018-08-06T11:22:08.277Z,1.53
2018-08-06T11:24:36.707Z,1.53
2018-08-06T11:27:04.888Z,1.80
2018-08-06T11:29:32.996Z,1.87
2018-08-06T11:32:01.336Z,1.80
2018-08-06T11:34:29.420Z,1.60
2018-08-06T11:36:57.554Z,1.67
2018-08-06T11:39:25.969Z,2.00
2018-08-06T11:41:54.082Z,1.63
2018-08-06T11:44:22.194Z,1.80
2018-08-06T11:46:50.325Z,2.17
2018-08-06T11:49:18.231Z,1.63
2018-08-06T11:51:46.333Z,1.70
2018-08-06T11:54:14.468Z,2.03
2018-08-06T11:56:42.801Z,1.80
2018-08-06T11:59:10.582Z,1.73
2018-08-06T12:01:38.752Z,1.87
2018-08-06T12:04:06.884Z,1.70
2018-08-06T12:06:35.041Z,1.77
2018-08-06T12:09:03.214Z,2.23
2018-08-06T12:11:38.672Z,2.10
2018-08-06T12:14:06.877Z,1.73
2018-08-06T12:16:35.006Z,1.80
2018-08-06T12:19:03.118Z,1.77
2018-08-06T12:21:31.240Z,1.60
2018-08-06T12:23:59.384Z,1.80
2018-08-06T12:26:27.623Z,1.90
2018-08-06T12:28:55.672Z,1.67
2018-08-06T12:31:23.790Z,1.50
2018-08-06T12:33:51.679Z,1.77
2018-08-06T12:36:20.389Z,1.90
2018-08-06T12:38:58.394Z,1.50
2018-08-06T12:41:26.524Z,1.77
2018-08-06T12:43:54.653Z,1.57
2018-08-06T12:46:22.817Z,1.70
2018-08-06T12:48:51.096Z,2.00
2018-08-06T12:51:19.356Z,1.97
2018-08-06T12:53:47.523Z,1.80
2018-08-06T12:56:15.636Z,4.67
2018-08-06T12:58:43.767Z,2.40
2018-08-06T13:01:11.880Z,1.80
2018-08-06T13:03:40.011Z,3.07
2018-08-06T13:06:08.164Z,1.70
2018-08-06T13:08:36.304Z,1.53
2018-08-06T13:11:04.437Z,1.83
2018-08-06T13:13:32.923Z,1.60
2018-08-06T13:16:01.064Z,1.80
2018-08-06T13:18:29.184Z,1.63
2018-08-06T13:20:57.410Z,1.70
2018-08-06T13:23:25.546Z,2.07
2018-08-06T13:25:53.676Z,1.80
2018-08-06T13:28:21.800Z,1.90
2018-08-06T13:30:49.946Z,1.90
2018-08-06T13:33:18.080Z,1.70
2018-08-06T13:35:46.220Z,2.03
2018-08-06T13:38:14.346Z,2.03
2018-08-06T13:40:42.228Z,2.03
2018-08-06T13:43:10.351Z,2.47
2018-08-06T13:45:38.512Z,1.90
2018-08-06T13:48:06.656Z,2.00
2018-08-06T13:50:34.796Z,2.50
2018-08-06T13:53:03.030Z,2.33
2018-08-06T13:55:31.144Z,1.83
2018-08-06T13:57:59.267Z,2.03
2018-08-06T14:00:27.414Z,2.10
2018-08-06T14:02:55.553Z,1.90
2018-08-06T14:05:23.698Z,1.90
2018-08-06T14:07:51.797Z,2.23
2018-08-06T14:10:19.949Z,2.10
2018-08-06T14:12:48.144Z,1.80
2018-08-06T14:15:16.312Z,2.10
2018-08-06T14:17:44.579Z,1.70
2018-08-06T14:20:14.017Z,2.13
2018-08-06T14:22:42.153Z,1.90
2018-08-06T14:25:10.977Z,1.80
2018-08-06T14:27:39.179Z,1.80
2018-08-06T14:30:10.297Z,1.90
2018-08-06T14:32:38.536Z,2.10
2018-08-06T14:35:06.887Z,2.10
2018-08-06T14:37:35.016Z,2.20
2018-08-06T14:40:03.158Z,2.30
2018-08-06T14:42:31.331Z,2.20
2018-08-06T14:44:59.485Z,2.00
2018-08-06T14:47:27.614Z,2.40
2018-08-06T14:49:55.845Z,2.20
2018-08-06T14:52:23.960Z,2.20
2018-08-06T14:54:52.264Z,2.13
2018-08-06T14:57:20.412Z,2.57
2018-08-06T14:59:48.532Z,2.60
2018-08-06T15:02:16.703Z,2.50
2018-08-06T15:04:44.828Z,2.27
2018-08-06T15:07:13.316Z,2.23
2018-08-06T15:09:41.692Z,2.63
2018-08-06T15:12:09.797Z,2.30
2018-08-06T15:14:38.312Z,2.10
2018-08-06T15:17:06.513Z,2.60
2018-08-06T15:19:34.577Z,2.20
2018-08-06T15:22:02.976Z,2.30
2018-08-06T15:24:31.103Z,2.73
2018-08-06T15:26:59.289Z,2.60
2018-08-06T15:29:27.422Z,2.50
2018-08-06T15:31:55.574Z,2.10
2018-08-06T15:34:23.720Z,2.57
2018-08-06T15:36:52.122Z,2.73
2018-08-06T15:39:20.256Z,2.00
2018-08-06T15:41:48.381Z,2.47
2018-08-06T15:44:16.525Z,2.60
2018-08-06T15:49:37.968Z,2.30
2018-08-06T15:52:06.357Z,2.40
2018-08-06T15:54:35.647Z,2.40
2018-08-06T15:57:03.836Z,2.50
2018-08-06T15:59:32.044Z,2.90
2018-08-06T16:02:00.157Z,2.57
2018-08-06T16:04:28.324Z,2.77
2018-08-06T16:06:56.492Z,3.00
2018-08-06T16:09:24.708Z,2.63
2018-08-06T16:11:53.199Z,2.87
2018-08-06T16:14:21.328Z,2.67
2018-08-06T16:16:49.749Z,2.87
2018-08-06T16:19:17.902Z,2.57
2018-08-06T16:21:46.125Z,2.70
2018-08-06T16:27:06.783Z,3.20
2018-08-06T16:29:35.236Z,2.83
2018-08-06T16:32:03.361Z,2.60
2018-08-06T16:34:31.493Z,3.00
2018-08-06T16:36:59.631Z,2.63
2018-08-06T16:39:27.777Z,2.50
2018-08-06T16:41:55.904Z,2.67
2018-08-06T16:44:24.123Z,2.23
2018-08-06T16:46:52.348Z,2.40
2018-08-06T16:49:20.474Z,2.40
2018-08-06T16:51:48.617Z,2.37
2018-08-06T16:54:16.860Z,2.77
2018-08-06T16:56:44.999Z,2.43
2018-08-06T16:59:13.163Z,2.80
2018-08-06T17:01:41.287Z,2.87
2018-08-06T17:04:09.432Z,2.57
2018-08-06T17:06:37.621Z,2.40
2018-08-06T17:09:07.261Z,3.00
2018-08-06T17:11:35.666Z,2.97
2018-08-06T17:14:04.512Z,2.63
2018-08-06T17:16:32.665Z,2.90
2018-08-06T17:19:00.793Z,2.80
2018-08-06T17:21:28.997Z,2.60
2018-08-06T17:23:57.411Z,2.43
2018-08-06T17:26:25.769Z,2.63
2018-08-06T17:28:54.013Z,2.57
2018-08-06T17:31:22.169Z,2.47
2018-08-06T17:33:50.350Z,2.40
2018-08-06T17:36:18.517Z,2.70
2018-08-06T17:38:46.654Z,2.10
2018-08-06T17:41:14.860Z,2.23
2018-08-06T17:43:43.080Z,2.77
2018-08-06T17:46:11.249Z,2.57
2018-08-06T17:48:39.495Z,2.50
2018-08-06T17:51:07.826Z,2.70
2018-08-06T17:53:36.008Z,2.80
2018-08-06T17:56:04.602Z,2.77
2018-08-06T17:58:32.738Z,2.30
2018-08-06T18:01:01.650Z,2.33
2018-08-06T18:03:31.239Z,2.30
2018-08-06T18:05:59.530Z,2.50
2018-08-06T18:08:28.226Z,2.70
2018-08-06T18:10:57.095Z,2.60
2018-08-06T18:13:25.817Z,2.87
2018-08-06T18:15:54.413Z,2.50
2018-08-06T18:18:29.457Z,2.47
2018-08-06T18:20:58.393Z,3.20
2018-08-06T18:23:28.530Z,5.07
2018-08-06T18:25:58.694Z,3.13
2018-08-06T18:28:29.174Z,3.07
2018-08-06T18:30:59.273Z,3.00
2018-08-06T18:33:29.675Z,4.03
2018-08-06T18:36:00.106Z,4.23
2018-08-06T18:38:30.543Z,2.70
2018-08-06T18:41:01.494Z,2.90
2018-08-06T18:43:32.239Z,2.50
2018-08-06T18:46:02.508Z,2.70
2018-08-06T18:48:33.607Z,2.90
2018-08-06T18:51:03.969Z,3.30
2018-08-06T18:53:34.961Z,3.13
2018-08-06T18:56:05.909Z,3.90
2018-08-06T18:58:36.455Z,3.53
2018-08-06T19:01:07.024Z,3.20
2018-08-06T19:03:37.570Z,3.17
2018-08-06T19:06:08.056Z,3.70
2018-08-06T19:08:38.675Z,2.93
2018-08-06T19:11:09.102Z,3.30
2018-08-06T19:13:45.106Z,3.50
2018-08-06T19:16:14.772Z,3.80
2018-08-06T19:18:49.550Z,3.50
2018-08-06T19:21:19.286Z,3.70
2018-08-06T19:23:49.184Z,3.40
2018-08-06T19:26:18.887Z,2.93
2018-08-06T19:28:48.541Z,3.03
2018-08-06T19:31:23.473Z,3.23
2018-08-06T19:33:53.164Z,3.30
2018-08-06T19:36:23.114Z,3.07
2018-08-06T19:38:52.753Z,3.80
2018-08-06T19:41:22.434Z,3.60
2018-08-06T19:43:52.275Z,3.37
2018-08-06T19:46:21.974Z,3.30
2018-08-06T19:48:51.648Z,3.60
2018-08-06T19:51:21.280Z,3.80
2018-08-06T19:53:51.036Z,2.90
2018-08-06T19:56:20.681Z,3.20
2018-08-06T19:58:51.768Z,3.80
2018-08-06T20:01:21.413Z,3.30
2018-08-06T20:03:51.485Z,3.40
2018-08-06T20:06:21.365Z,3.47
2018-08-06T20:08:51.359Z,3.73
2018-08-06T20:11:21.040Z,3.40
2018-08-06T20:13:50.796Z,3.03
2018-08-06T20:16:20.754Z,3.70
2018-08-06T20:18:50.382Z,3.37
2018-08-06T20:21:20.597Z,3.10
2018-08-06T20:23:50.408Z,3.43
2018-08-06T20:26:20.219Z,3.00
2018-08-06T20:28:49.843Z,3.60
2018-08-06T20:31:19.614Z,3.33
2018-08-06T20:33:49.238Z,3.83
2018-08-06T20:36:18.796Z,6.17
2018-08-06T20:38:48.450Z,5.27
2018-08-06T20:41:18.089Z,5.43
2018-08-06T20:43:47.974Z,3.73
2018-08-06T20:46:17.753Z,3.80
2018-08-06T20:48:47.469Z,3.73
2018-08-06T20:51:17.215Z,3.73
2018-08-06T20:53:46.889Z,3.03
2018-08-06T20:56:16.597Z,2.90
2018-08-06T20:58:47.380Z,4.47
2018-08-06T21:01:16.979Z,4.33
2018-08-06T21:03:46.894Z,3.30
2018-08-06T21:06:16.534Z,4.20
2018-08-06T21:08:46.012Z,3.83
2018-08-06T21:11:15.403Z,4.00
2018-08-06T21:13:45.015Z,3.17
2018-08-06T21:16:14.337Z,7.13
2018-08-06T21:18:42.694Z,5.37
2018-08-06T21:21:10.811Z,4.70
2018-08-06T21:23:38.890Z,3.83
2018-08-06T21:26:06.822Z,3.37
2018-08-06T21:28:34.784Z,4.17
2018-08-06T21:31:02.765Z,3.00
2018-08-06T21:33:30.915Z,2.80
2018-08-06T21:35:58.832Z,2.90
2018-08-06T21:38:26.719Z,5.53
2018-08-06T21:40:54.620Z,4.40
2018-08-06T21:43:22.545Z,2.93
2018-08-06T21:45:50.756Z,4.03
2018-08-06T21:48:18.665Z,3.00
2018-08-06T21:50:46.540Z,2.73
2018-08-06T21:53:14.474Z,3.00
2018-08-06T21:55:42.373Z,3.63
2018-08-06T21:58:10.268Z,2.83
2018-08-06T22:00:40.093Z,2.57
2018-08-06T22:03:08.916Z,2.60
2018-08-06T22:05:36.962Z,2.97
2018-08-06T22:08:04.935Z,3.03
2018-08-06T22:10:32.991Z,2.73
2018-08-06T22:13:00.965Z,3.20
2018-08-06T22:15:28.896Z,2.47
2018-08-06T22:17:57.353Z,2.53
2018-08-06T22:20:25.272Z,2.30
2018-08-06T22:22:53.611Z,2.97
2018-08-06T22:25:21.615Z,2.80
2018-08-06T22:27:49.535Z,3.23
2018-08-06T22:30:17.420Z,2.67
2018-08-06T22:32:45.423Z,2.23
2018-08-06T22:35:13.695Z,3.53
2018-08-06T22:37:42.164Z,3.70
2018-08-06T22:40:11.210Z,3.17
2018-08-06T22:42:39.535Z,2.70
2018-08-06T22:45:08.260Z,2.70
2018-08-06T22:47:36.852Z,2.63
2018-08-06T22:50:05.664Z,2.30
2018-08-06T22:52:33.535Z,2.50
2018-08-06T22:55:01.555Z,2.43
2018-08-06T22:57:29.487Z,2.23
2018-08-06T22:59:57.387Z,2.50
2018-08-06T23:02:25.279Z,2.67
2018-08-06T23:04:53.151Z,2.47
2018-08-06T23:07:21.041Z,2.40
2018-08-06T23:09:49.019Z,2.20
2018-08-06T23:12:16.995Z,2.40
2018-08-06T23:14:44.921Z,2.50
2018-08-06T23:17:12.815Z,2.63
2018-08-06T23:19:40.740Z,2.43
2018-08-06T23:22:08.960Z,2.63
2018-08-06T23:24:36.835Z,2.70
2018-08-06T23:27:04.716Z,2.50
2018-08-06T23:29:32.895Z,2.60
2018-08-06T23:32:00.767Z,2.37
2018-08-06T23:34:28.643Z,2.17
2018-08-06T23:36:56.603Z,2.30
2018-08-06T23:39:24.471Z,2.80
2018-08-06T23:41:52.424Z,2.80
2018-08-06T23:44:20.308Z,2.10
2018-08-06T23:46:48.344Z,2.67
2018-08-06T23:49:16.237Z,2.50
2018-08-06T23:51:44.396Z,2.70
2018-08-06T23:54:12.356Z,2.00
2018-08-06T23:56:40.228Z,2.50
2018-08-06T23:59:08.111Z,2.20
